createdAt,value
2022-08-26T00:02:07.193Z,6.53
2022-08-26T00:04:35.545Z,5.87
2022-08-26T00:07:03.584Z,6.00
2022-08-26T00:09:39.095Z,5.50
2022-08-26T00:12:12.098Z,6.37
2022-08-26T00:14:41.585Z,6.13
2022-08-26T00:17:09.772Z,5.57
2022-08-26T00:19:38.184Z,6.20
2022-08-26T00:22:06.297Z,6.03
2022-08-26T00:24:34.564Z,6.03
2022-08-26T00:27:02.538Z,5.60
2022-08-26T00:29:34.831Z,5.87
2022-08-26T00:32:06.230Z,5.70
2022-08-26T00:34:34.775Z,5.10
2022-08-26T00:37:02.711Z,5.07
2022-08-26T00:39:31.980Z,5.10
2022-08-26T00:42:00.429Z,5.17
2022-08-26T00:44:28.351Z,4.40
2022-08-26T00:47:03.699Z,4.43
2022-08-26T00:49:39.660Z,4.50
2022-08-26T00:52:14.599Z,4.80
2022-08-26T00:54:47.491Z,4.33
2022-08-26T00:57:18.962Z,4.30
2022-08-26T00:59:50.046Z,5.00
2022-08-26T01:02:21.467Z,4.50
2022-08-26T01:04:54.420Z,4.53
2022-08-26T01:07:25.593Z,4.80
2022-08-26T01:09:53.935Z,4.67
2022-08-26T01:12:22.890Z,4.50
2022-08-26T01:14:51.103Z,4.53
2022-08-26T01:17:20.558Z,4.67
2022-08-26T01:19:51.509Z,4.60
2022-08-26T01:22:28.117Z,5.43
2022-08-26T01:24:59.487Z,5.10
2022-08-26T01:27:32.746Z,5.30
2022-08-26T01:30:03.047Z,5.53
2022-08-26T01:32:32.811Z,5.33
2022-08-26T01:35:01.711Z,5.33
2022-08-26T01:37:36.507Z,5.57
2022-08-26T01:40:09.320Z,5.47
2022-08-26T01:42:37.294Z,4.97
2022-08-26T01:45:10.035Z,5.80
2022-08-26T01:47:39.430Z,5.37
2022-08-26T01:50:15.798Z,5.83
2022-08-26T01:52:56.919Z,5.60
2022-08-26T01:55:33.249Z,6.00
2022-08-26T01:58:05.764Z,5.87
2022-08-26T02:00:35.846Z,6.30
2022-08-26T02:03:20.749Z,5.80
2022-08-26T02:05:54.420Z,6.03
2022-08-26T02:08:27.527Z,5.30
2022-08-26T02:10:56.848Z,5.40
2022-08-26T02:13:29.972Z,6.00
2022-08-26T02:16:00.435Z,5.77
2022-08-26T02:18:30.737Z,5.60
2022-08-26T02:20:58.746Z,5.73
2022-08-26T02:23:26.713Z,5.30
2022-08-26T02:26:00.836Z,5.07
2022-08-26T02:28:31.934Z,5.30
2022-08-26T02:30:59.934Z,5.57
2022-08-26T02:33:30.661Z,4.80
2022-08-26T02:35:58.772Z,5.23
2022-08-26T02:38:26.666Z,5.13
2022-08-26T02:40:54.854Z,5.20
2022-08-26T02:43:31.382Z,4.73
2022-08-26T02:46:01.739Z,5.40
2022-08-26T02:48:30.214Z,4.93
2022-08-26T02:51:00.128Z,4.33
2022-08-26T02:53:28.238Z,5.00
2022-08-26T02:56:00.014Z,4.80
2022-08-26T02:58:29.430Z,4.93
2022-08-26T03:00:57.555Z,4.97
2022-08-26T03:03:26.191Z,4.40
2022-08-26T03:05:54.159Z,5.40
2022-08-26T03:08:22.453Z,5.03
2022-08-26T03:10:50.875Z,5.37
2022-08-26T03:13:19.059Z,5.00
2022-08-26T03:15:48.360Z,4.77
2022-08-26T03:18:16.769Z,5.13
2022-08-26T03:20:45.427Z,4.97
2022-08-26T03:23:13.426Z,4.87
2022-08-26T03:25:41.495Z,5.10
2022-08-26T03:28:09.656Z,5.30
2022-08-26T03:30:39.955Z,5.13
2022-08-26T03:33:15.723Z,4.93
2022-08-26T03:35:47.223Z,4.80
2022-08-26T03:38:16.023Z,4.40
2022-08-26T03:40:44.672Z,4.37
2022-08-26T03:43:12.798Z,4.50
2022-08-26T03:45:42.157Z,4.33
2022-08-26T03:48:11.263Z,4.50
2022-08-26T03:50:41.468Z,3.77
2022-08-26T03:53:13.256Z,4.10
2022-08-26T03:55:42.406Z,4.37
2022-08-26T03:58:11.356Z,4.47
2022-08-26T04:00:39.330Z,3.87
2022-08-26T04:03:09.799Z,3.67
2022-08-26T04:05:38.317Z,3.80
2022-08-26T04:08:09.251Z,3.50
2022-08-26T04:10:38.882Z,3.30
2022-08-26T04:13:07.458Z,3.30
2022-08-26T04:15:35.519Z,3.57
2022-08-26T04:18:04.277Z,3.17
2022-08-26T04:20:32.476Z,3.50
2022-08-26T04:23:00.415Z,3.70
2022-08-26T04:25:29.746Z,3.40
2022-08-26T04:27:57.743Z,3.60
2022-08-26T04:30:25.683Z,3.50
2022-08-26T04:32:53.620Z,3.07
2022-08-26T04:35:25.819Z,3.07
2022-08-26T04:37:55.260Z,2.70
2022-08-26T04:40:23.737Z,2.90
2022-08-26T04:42:53.018Z,3.03
2022-08-26T04:45:22.570Z,3.10
2022-08-26T04:47:56.152Z,3.40
2022-08-26T04:50:25.668Z,2.80
2022-08-26T04:52:55.198Z,3.40
2022-08-26T04:55:25.240Z,3.60
2022-08-26T04:58:10.290Z,3.43
2022-08-26T05:00:38.775Z,2.93
2022-08-26T05:03:07.788Z,3.20
2022-08-26T05:05:40.102Z,3.00
2022-08-26T05:08:08.330Z,3.47
2022-08-26T05:10:40.926Z,2.80
2022-08-26T05:13:12.680Z,3.13
2022-08-26T05:15:44.050Z,2.87
2022-08-26T05:18:13.739Z,3.23
2022-08-26T05:20:42.458Z,2.77
2022-08-26T05:23:10.467Z,3.10
2022-08-26T05:25:40.424Z,2.67
2022-08-26T05:28:09.904Z,3.20
2022-08-26T05:30:38.270Z,3.03
2022-08-26T05:33:06.981Z,3.30
2022-08-26T05:35:35.687Z,3.50
2022-08-26T05:38:11.814Z,3.37
2022-08-26T05:40:44.564Z,3.40
2022-08-26T05:43:14.638Z,2.43
2022-08-26T05:45:46.299Z,3.17
2022-08-26T05:48:15.253Z,3.03
2022-08-26T05:50:46.327Z,3.17
2022-08-26T05:53:16.424Z,2.67
2022-08-26T05:55:47.598Z,3.50
2022-08-26T05:58:19.963Z,3.20
2022-08-26T06:00:58.343Z,3.10
2022-08-26T06:03:26.333Z,2.67
2022-08-26T06:05:54.261Z,2.20
2022-08-26T06:08:22.467Z,2.40
2022-08-26T06:10:52.736Z,3.00
2022-08-26T06:13:25.668Z,3.00
2022-08-26T06:15:54.752Z,3.10
2022-08-26T06:18:27.313Z,2.83
2022-08-26T06:20:57.773Z,3.20
2022-08-26T06:23:46.375Z,2.80
2022-08-26T06:26:15.536Z,2.30
2022-08-26T06:28:45.761Z,2.40
2022-08-26T06:31:14.469Z,2.00
2022-08-26T06:33:42.646Z,2.33
2022-08-26T06:36:10.875Z,2.57
2022-08-26T06:38:39.946Z,2.10
2022-08-26T06:41:10.723Z,2.30
2022-08-26T06:43:39.582Z,2.03
2022-08-26T06:46:11.506Z,1.97
2022-08-26T06:48:40.247Z,1.90
2022-08-26T06:51:10.340Z,2.03
2022-08-26T06:53:38.664Z,2.17
2022-08-26T06:56:11.827Z,2.00
2022-08-26T06:58:41.609Z,1.70
2022-08-26T07:01:18.555Z,2.40
2022-08-26T07:03:48.257Z,1.97
2022-08-26T07:06:18.447Z,1.70
2022-08-26T07:08:46.633Z,1.77
2022-08-26T07:11:15.818Z,1.70
2022-08-26T07:13:44.752Z,2.10
2022-08-26T07:16:17.650Z,1.70
2022-08-26T07:18:46.353Z,1.93
2022-08-26T07:21:17.270Z,1.60
2022-08-26T07:23:46.339Z,1.63
2022-08-26T07:26:17.227Z,1.60
2022-08-26T07:28:46.639Z,1.70
2022-08-26T07:31:17.499Z,1.67
2022-08-26T07:33:46.155Z,1.50
2022-08-26T07:36:15.465Z,1.83
2022-08-26T07:38:44.625Z,1.43
2022-08-26T07:41:14.059Z,1.60
2022-08-26T07:43:41.942Z,1.83
2022-08-26T07:46:15.885Z,1.90
2022-08-26T07:48:46.749Z,1.70
2022-08-26T07:51:15.942Z,1.77
2022-08-26T07:53:44.091Z,1.60
2022-08-26T07:56:16.428Z,1.80
2022-08-26T07:58:47.683Z,1.80
2022-08-26T08:01:18.606Z,1.37
2022-08-26T08:03:48.061Z,1.70
2022-08-26T08:06:18.611Z,1.80
2022-08-26T08:08:46.467Z,1.47
2022-08-26T08:11:15.534Z,1.93
2022-08-26T08:13:43.510Z,1.57
2022-08-26T08:16:12.775Z,1.47
2022-08-26T08:18:41.091Z,1.70
2022-08-26T08:21:21.769Z,1.70
2022-08-26T08:23:51.746Z,1.80
2022-08-26T08:26:19.852Z,1.90
2022-08-26T08:28:48.478Z,1.97
2022-08-26T08:31:38.623Z,1.70
2022-08-26T08:34:09.392Z,1.60
2022-08-26T08:36:38.651Z,1.90
2022-08-26T08:39:07.055Z,1.60
2022-08-26T08:41:53.096Z,1.87
2022-08-26T08:44:30.880Z,1.67
2022-08-26T08:47:06.724Z,1.70
2022-08-26T08:49:35.661Z,1.60
2022-08-26T08:52:10.718Z,1.60
2022-08-26T08:54:39.307Z,1.60
2022-08-26T08:57:13.585Z,1.67
2022-08-26T08:59:50.818Z,1.70
2022-08-26T09:02:28.145Z,1.50
2022-08-26T09:05:17.684Z,1.60
2022-08-26T09:07:51.028Z,1.60
2022-08-26T09:10:36.062Z,1.63
2022-08-26T09:13:07.443Z,1.70
2022-08-26T09:15:46.944Z,1.60
2022-08-26T09:18:28.860Z,1.57
2022-08-26T09:20:59.415Z,1.63
2022-08-26T09:23:28.897Z,1.43
2022-08-26T09:26:00.707Z,1.70
2022-08-26T09:28:30.752Z,1.77
2022-08-26T09:31:14.079Z,1.70
2022-08-26T09:33:43.295Z,1.40
2022-08-26T09:36:18.592Z,1.27
2022-08-26T09:38:47.774Z,1.47
2022-08-26T09:41:25.998Z,1.90
2022-08-26T09:44:14.754Z,1.67
2022-08-26T09:46:47.695Z,1.33
2022-08-26T09:49:26.824Z,1.60
2022-08-26T09:52:07.704Z,1.50
2022-08-26T09:54:38.617Z,1.67
2022-08-26T09:57:25.900Z,1.60
2022-08-26T09:59:54.058Z,1.50
2022-08-26T10:02:39.242Z,1.70
2022-08-26T10:05:11.576Z,1.80
2022-08-26T10:07:44.943Z,1.70
2022-08-26T10:10:21.029Z,1.60
2022-08-26T10:12:56.926Z,1.60
2022-08-26T10:15:27.059Z,1.63
2022-08-26T10:18:03.402Z,1.70
2022-08-26T10:20:37.165Z,1.67
2022-08-26T10:23:09.362Z,1.60
2022-08-26T10:25:47.269Z,1.70
2022-08-26T10:28:24.398Z,1.90
2022-08-26T10:30:57.268Z,1.40
2022-08-26T10:33:25.239Z,1.47
2022-08-26T10:35:56.575Z,1.80
2022-08-26T10:38:29.366Z,1.63
2022-08-26T10:41:03.630Z,1.63
2022-08-26T10:43:42.759Z,1.67
2022-08-26T10:46:17.077Z,1.70
2022-08-26T10:48:49.248Z,1.33
2022-08-26T10:51:25.137Z,1.60
2022-08-26T10:53:57.426Z,1.37
2022-08-26T10:56:41.159Z,1.40
2022-08-26T10:59:18.773Z,1.60
2022-08-26T11:01:52.878Z,1.70
2022-08-26T11:04:47.113Z,1.50
2022-08-26T11:07:43.666Z,1.53
2022-08-26T11:10:54.558Z,1.73
2022-08-26T11:14:02.638Z,1.40
2022-08-26T11:16:43.393Z,1.53
2022-08-26T11:19:57.099Z,1.70
2022-08-26T11:22:27.827Z,1.37
2022-08-26T11:25:09.520Z,1.40
2022-08-26T11:28:05.129Z,1.40
2022-08-26T11:30:43.378Z,1.57
2022-08-26T11:34:00.081Z,1.27
2022-08-26T11:37:01.388Z,1.50
2022-08-26T11:39:36.626Z,1.40
2022-08-26T11:42:20.196Z,1.30
2022-08-26T11:44:49.427Z,1.63
2022-08-26T11:47:26.654Z,1.33
2022-08-26T11:50:12.067Z,1.80
2022-08-26T11:52:41.820Z,1.60
2022-08-26T11:55:12.178Z,1.57
2022-08-26T11:57:45.370Z,1.70
2022-08-26T12:00:22.694Z,1.60
2022-08-26T12:02:52.634Z,1.90
2022-08-26T12:05:26.810Z,1.40
2022-08-26T12:08:03.833Z,1.60
2022-08-26T12:10:34.847Z,1.93
2022-08-26T12:13:04.007Z,1.40
2022-08-26T12:15:34.823Z,1.40
2022-08-26T12:18:20.546Z,1.60
2022-08-26T12:20:58.702Z,1.70
2022-08-26T12:23:36.770Z,1.60
2022-08-26T12:26:08.201Z,1.60
2022-08-26T12:28:44.807Z,1.90
2022-08-26T12:31:12.895Z,1.80
2022-08-26T12:33:45.458Z,1.80
2022-08-26T12:36:13.891Z,1.57
2022-08-26T12:38:43.508Z,1.50
2022-08-26T12:41:11.779Z,1.70
2022-08-26T12:43:45.196Z,1.90
2022-08-26T12:46:16.831Z,1.40
2022-08-26T12:48:48.621Z,1.67
2022-08-26T12:51:23.350Z,1.53
2022-08-26T12:53:53.511Z,1.53
2022-08-26T12:56:30.951Z,1.80
2022-08-26T12:59:07.907Z,1.70
2022-08-26T13:01:42.782Z,1.67
2022-08-26T13:04:39.702Z,1.90
2022-08-26T13:07:15.290Z,1.70
2022-08-26T13:09:44.550Z,1.67
2022-08-26T13:12:12.612Z,1.60
2022-08-26T13:14:40.578Z,1.50
2022-08-26T13:17:08.472Z,1.57
2022-08-26T13:19:36.425Z,1.80
2022-08-26T13:22:05.917Z,1.50
2022-08-26T13:24:36.828Z,1.60
2022-08-26T13:27:07.975Z,1.57
2022-08-26T13:29:36.236Z,1.83
2022-08-26T13:32:05.604Z,1.40
2022-08-26T13:34:34.071Z,1.50
2022-08-26T13:37:01.934Z,1.50
2022-08-26T13:39:30.261Z,1.30
2022-08-26T13:41:58.254Z,1.60
2022-08-26T13:44:27.539Z,1.50
2022-08-26T13:46:55.536Z,1.40
2022-08-26T13:49:23.545Z,1.50
2022-08-26T13:51:51.452Z,1.40
2022-08-26T13:54:19.955Z,1.33
2022-08-26T13:56:47.838Z,1.30
2022-08-26T13:59:15.762Z,1.17
2022-08-26T14:01:45.010Z,1.10
2022-08-26T14:04:12.888Z,1.10
2022-08-26T14:06:40.872Z,1.50
2022-08-26T14:09:08.839Z,1.50
2022-08-26T14:11:53.832Z,1.70
2022-08-26T14:14:22.946Z,1.60
2022-08-26T14:16:59.301Z,1.83
2022-08-26T14:19:29.551Z,1.63
2022-08-26T14:21:57.508Z,1.90
2022-08-26T14:24:25.412Z,1.70
2022-08-26T14:26:53.378Z,1.63
2022-08-26T14:29:21.278Z,1.83
2022-08-26T14:31:49.296Z,1.27
2022-08-26T14:34:18.668Z,1.57
2022-08-26T14:36:46.571Z,1.70
2022-08-26T14:39:14.748Z,1.77
2022-08-26T14:41:54.077Z,1.90
2022-08-26T14:44:25.378Z,1.50
2022-08-26T14:46:54.717Z,1.60
2022-08-26T14:49:25.124Z,1.73
2022-08-26T14:51:53.008Z,1.80
2022-08-26T14:54:21.169Z,1.60
2022-08-26T14:56:51.569Z,1.90
2022-08-26T14:59:21.783Z,2.20
2022-08-26T15:01:50.824Z,2.23
2022-08-26T15:04:18.825Z,1.93
2022-08-26T15:06:48.123Z,2.10
2022-08-26T15:09:16.390Z,2.00
2022-08-26T15:11:44.445Z,1.90
2022-08-26T15:14:19.315Z,1.90
2022-08-26T15:16:48.301Z,2.17
2022-08-26T15:19:16.342Z,2.20
2022-08-26T15:21:45.495Z,1.90
2022-08-26T15:24:15.464Z,2.40
2022-08-26T15:26:44.302Z,2.30
2022-08-26T15:29:12.258Z,2.70
2022-08-26T15:31:40.274Z,2.43
2022-08-26T15:34:13.291Z,2.03
2022-08-26T15:36:45.603Z,2.33
2022-08-26T15:39:17.068Z,2.43
2022-08-26T15:41:45.453Z,2.30
2022-08-26T15:44:16.046Z,2.17
2022-08-26T15:46:44.347Z,2.23
2022-08-26T15:49:18.313Z,2.30
2022-08-26T15:51:47.916Z,2.00
2022-08-26T15:54:19.461Z,2.10
2022-08-26T15:56:50.463Z,2.00
2022-08-26T15:59:19.104Z,1.70
2022-08-26T16:01:47.660Z,1.83
2022-08-26T16:04:15.669Z,1.70
2022-08-26T16:06:46.744Z,2.10
2022-08-26T16:09:14.649Z,1.60
2022-08-26T16:11:43.910Z,1.80
2022-08-26T16:14:11.811Z,1.83
2022-08-26T16:16:40.771Z,1.90
2022-08-26T16:19:08.923Z,2.10
2022-08-26T16:21:37.396Z,1.93
2022-08-26T16:24:05.722Z,2.23
2022-08-26T16:26:35.562Z,1.97
2022-08-26T16:29:06.883Z,2.00
2022-08-26T16:31:35.357Z,1.83
2022-08-26T16:34:03.419Z,2.10
2022-08-26T16:36:31.338Z,2.10
2022-08-26T16:38:59.319Z,2.00
2022-08-26T16:41:30.171Z,1.97
2022-08-26T16:43:59.021Z,1.90
2022-08-26T16:46:29.197Z,2.27
2022-08-26T16:48:58.384Z,2.00
2022-08-26T16:51:28.387Z,1.70
2022-08-26T16:53:57.909Z,2.33
2022-08-26T16:56:34.103Z,1.60
2022-08-26T16:59:02.834Z,2.00
2022-08-26T17:01:32.193Z,2.10
2022-08-26T17:04:00.311Z,2.23
2022-08-26T17:06:28.293Z,1.90
2022-08-26T17:08:56.438Z,1.80
2022-08-26T17:11:24.334Z,1.97
2022-08-26T17:13:52.266Z,2.00
2022-08-26T17:16:23.321Z,2.00
2022-08-26T17:18:56.476Z,1.60
2022-08-26T17:21:24.719Z,1.83
2022-08-26T17:23:52.973Z,1.73
2022-08-26T17:26:21.117Z,1.80
2022-08-26T17:28:49.009Z,1.73
2022-08-26T17:31:17.216Z,1.90
2022-08-26T17:33:48.866Z,2.27
2022-08-26T17:36:19.753Z,2.10
2022-08-26T17:38:48.326Z,1.80
2022-08-26T17:41:17.841Z,2.00
2022-08-26T17:43:45.853Z,1.93
2022-08-26T17:46:13.878Z,1.63
2022-08-26T17:48:42.352Z,1.90
2022-08-26T17:51:11.385Z,1.90
2022-08-26T17:53:41.389Z,1.93
2022-08-26T17:56:11.407Z,2.50
2022-08-26T17:58:40.038Z,1.73
2022-08-26T18:01:08.080Z,1.70
2022-08-26T18:03:36.437Z,1.60
2022-08-26T18:06:08.852Z,1.73
2022-08-26T18:08:37.057Z,1.60
2022-08-26T18:11:09.312Z,1.77
2022-08-26T18:13:37.676Z,1.97
2022-08-26T18:16:13.914Z,1.70
2022-08-26T18:18:42.148Z,1.60
2022-08-26T18:21:14.124Z,1.80
2022-08-26T18:23:42.144Z,1.80
2022-08-26T18:26:16.273Z,1.80
2022-08-26T18:28:44.283Z,1.87
2022-08-26T18:31:15.203Z,1.67
2022-08-26T18:33:43.945Z,1.80
2022-08-26T18:36:18.376Z,1.93
2022-08-26T18:38:47.037Z,1.73
2022-08-26T18:41:16.355Z,2.17
2022-08-26T18:43:44.224Z,1.80
2022-08-26T18:46:12.352Z,1.90
2022-08-26T18:48:41.239Z,1.63
2022-08-26T18:51:12.581Z,1.70
2022-08-26T18:53:41.908Z,2.10
2022-08-26T18:56:09.907Z,2.00
2022-08-26T18:58:39.067Z,2.00
2022-08-26T19:01:07.669Z,1.77
2022-08-26T19:03:35.628Z,1.70
2022-08-26T19:06:03.579Z,1.80
2022-08-26T19:08:31.805Z,2.03
2022-08-26T19:11:01.058Z,1.90
2022-08-26T19:13:28.948Z,1.97
2022-08-26T19:15:58.312Z,1.90
2022-08-26T19:18:26.213Z,1.60
2022-08-26T19:20:54.226Z,1.73
2022-08-26T19:23:32.423Z,1.57
2022-08-26T19:26:04.557Z,1.80
2022-08-26T19:28:33.108Z,1.63
2022-08-26T19:31:02.775Z,1.60
2022-08-26T19:33:31.449Z,1.50
2022-08-26T19:35:59.337Z,1.87
2022-08-26T19:38:27.837Z,1.70
2022-08-26T19:40:55.798Z,1.60
2022-08-26T19:43:23.721Z,1.67
2022-08-26T19:45:51.749Z,1.70
2022-08-26T19:48:21.061Z,1.63
2022-08-26T19:50:49.443Z,1.63
2022-08-26T19:53:17.356Z,1.70
2022-08-26T19:55:45.256Z,1.50
2022-08-26T19:58:13.191Z,1.80
2022-08-26T20:00:42.349Z,1.63
2022-08-26T20:03:10.719Z,1.60
2022-08-26T20:05:45.195Z,1.97
2022-08-26T20:08:22.163Z,1.73
2022-08-26T20:10:50.979Z,1.57
2022-08-26T20:13:19.269Z,1.77
2022-08-26T20:15:47.212Z,1.63
2022-08-26T20:18:29.192Z,1.50
2022-08-26T20:21:16.488Z,1.50
2022-08-26T20:23:45.791Z,1.70
2022-08-26T20:26:13.654Z,1.87
2022-08-26T20:28:41.571Z,1.80
2022-08-26T20:31:09.531Z,2.13
2022-08-26T20:33:46.199Z,1.67
2022-08-26T20:36:16.683Z,1.80
2022-08-26T20:38:45.076Z,1.60
2022-08-26T20:41:13.459Z,1.57
2022-08-26T20:43:42.635Z,1.87
2022-08-26T20:46:17.349Z,1.80
2022-08-26T20:48:47.631Z,1.53
2022-08-26T20:51:17.459Z,1.57
2022-08-26T20:53:46.032Z,1.73
2022-08-26T20:56:16.071Z,1.57
2022-08-26T20:58:44.079Z,1.80
2022-08-26T21:01:18.959Z,1.50
2022-08-26T21:03:47.752Z,1.60
2022-08-26T21:06:17.018Z,1.60
2022-08-26T21:08:44.976Z,1.80
2022-08-26T21:11:13.236Z,1.53
2022-08-26T21:14:01.675Z,1.70
2022-08-26T21:16:29.472Z,1.60
2022-08-26T21:18:57.616Z,1.50
2022-08-26T21:21:30.010Z,1.70
2022-08-26T21:23:58.091Z,1.80
2022-08-26T21:26:26.206Z,1.93
2022-08-26T21:28:54.378Z,1.77
2022-08-26T21:31:24.900Z,1.70
2022-08-26T21:33:53.801Z,1.70
2022-08-26T21:36:21.709Z,1.90
2022-08-26T21:38:50.868Z,1.80
2022-08-26T21:41:21.874Z,1.67
2022-08-26T21:43:51.286Z,1.67
2022-08-26T21:46:21.889Z,1.63
2022-08-26T21:48:51.462Z,1.90
2022-08-26T21:51:21.203Z,1.93
2022-08-26T21:53:52.657Z,1.87
2022-08-26T21:56:21.749Z,1.93
2022-08-26T21:58:49.933Z,2.07
2022-08-26T22:01:22.774Z,2.77
2022-08-26T22:03:52.522Z,3.17
2022-08-26T22:06:22.347Z,3.33
2022-08-26T22:08:52.284Z,3.40
2022-08-26T22:11:20.939Z,3.30
2022-08-26T22:13:49.931Z,2.90
2022-08-26T22:16:19.030Z,2.60
2022-08-26T22:18:47.100Z,3.17
2022-08-26T22:21:18.060Z,2.53
2022-08-26T22:23:46.537Z,2.70
2022-08-26T22:26:21.829Z,2.60
2022-08-26T22:28:58.650Z,2.60
2022-08-26T22:31:37.542Z,2.20
2022-08-26T22:34:08.491Z,2.20
2022-08-26T22:36:39.812Z,2.17
2022-08-26T22:39:13.269Z,2.30
2022-08-26T22:41:43.187Z,2.50
2022-08-26T22:44:11.609Z,1.93
2022-08-26T22:46:40.407Z,2.30
2022-08-26T22:49:09.892Z,2.03
2022-08-26T22:51:37.839Z,2.37
2022-08-26T22:54:06.300Z,2.20
2022-08-26T22:56:34.382Z,2.50
2022-08-26T22:59:04.160Z,2.20
2022-08-26T23:01:34.766Z,2.00
2022-08-26T23:04:02.757Z,2.30
2022-08-26T23:06:30.966Z,2.00
2022-08-26T23:08:59.040Z,2.00
2022-08-26T23:11:26.970Z,2.00
2022-08-26T23:13:54.797Z,2.40
2022-08-26T23:16:24.033Z,2.30
2022-08-26T23:18:52.555Z,2.07
2022-08-26T23:21:20.925Z,2.33
2022-08-26T23:23:48.811Z,2.27
2022-08-26T23:26:17.877Z,2.00
2022-08-26T23:28:45.863Z,2.33
2022-08-26T23:31:14.477Z,2.20
2022-08-26T23:34:01.258Z,1.97
2022-08-26T23:36:31.127Z,2.00
2022-08-26T23:39:03.245Z,1.70
2022-08-26T23:41:31.128Z,2.20
2022-08-26T23:44:03.262Z,2.30
2022-08-26T23:46:31.888Z,2.13
2022-08-26T23:49:01.552Z,2.20
2022-08-26T23:51:47.009Z,2.40
2022-08-26T23:54:16.496Z,2.23
2022-08-26T23:56:44.742Z,2.03
2022-08-26T23:59:12.626Z,2.20
